Terminal Aerodrome Forecast
Issued by NWS

Home | Current Version | Previous Version | Graphics & Text | Print | Product List | Glossary On
Versions: 1 2 3 4 5 6 7 8 9 10 11 12 13
000
FTUS45 KGGW 261732
TAFSDY
TAF
KSDY 261732Z 2618/2718 16007KT P6SM SCT200
     FM270200 VRB25G35KT 3SM -TSRA SCT060CB OVC110
     FM271100 01011KT P6SM VCSH SCT070 BKN120
     FM271300 36013KT P6SM SCT120=

USA.gov is the U.S. government's official web portal to all federal, state and local government web resources and services.